Terminal Aerodrome Forecast
Issued by NWS Jacksonville, FL

Home | Current Version | Previous Version | Text Only | Print | Product List | Glossary On
Versions: 1 2 3 4 5 6 7 8 9 10 11 12 13 14 15 16 17 18 19 20 21 22
000
FTUS42 KJAX 201601 AAC
TAFJAX
TAF AMD
KJAX 201601Z 2016/2112 23010KT P6SM SCT020
      TEMPO 2016/2017 BKN020
     FM201700 23012G20KT P6SM BKN040
     FM202300 21006KT P6SM SCT050 BKN250=

USA.gov is the U.S. government's official web portal to all federal, state and local government web resources and services.